Terminal Aerodrome Forecast
Issued by NWS

Home | Current Version | Previous Version | Text Only | Print | Product List | Glossary Off
Versions: 1 2 3 4 5 6 7 8 9 10 11 12 13 14 15 16 17 18 19

000
FTUS43 KABR 181100
TAFPIR
TAF
KPIR 181122Z 1812/1912 08007KT P6SM SCT250
      TEMPO 1815/1817 BKN015
     FM181700 15015G22KT P6SM SCT250
     FM190100 14014KT P6SM BKN250=

USA.gov is the U.S. government's official web portal to all federal, state and local government web resources and services.